sensor_id;sensor_type;location;lat;lon;timestamp;P1;durP1;ratioP1;P2;durP2;ratioP2
54883;SDS011;40776;52.880;6.016;2022-08-26T00:00:14;35.67;;;23.60;;
54883;SDS011;40776;52.880;6.016;2022-08-26T00:02:40;38.88;;;24.35;;
54883;SDS011;40776;52.880;6.016;2022-08-26T00:05:06;34.25;;;23.17;;
54883;SDS011;40776;52.880;6.016;2022-08-26T00:07:32;33.42;;;23.40;;
54883;SDS011;40776;52.880;6.016;2022-08-26T00:09:58;36.30;;;23.73;;
54883;SDS011;40776;52.880;6.016;2022-08-26T00:12:24;40.28;;;22.67;;
54883;SDS011;40776;52.880;6.016;2022-08-26T00:14:50;36.55;;;22.13;;
54883;SDS011;40776;52.880;6.016;2022-08-26T00:17:19;35.20;;;21.67;;
54883;SDS011;40776;52.880;6.016;2022-08-26T00:19:45;34.53;;;21.65;;
54883;SDS011;40776;52.880;6.016;2022-08-26T00:22:11;36.80;;;21.58;;
54883;SDS011;40776;52.880;6.016;2022-08-26T00:24:37;30.30;;;19.63;;
54883;SDS011;40776;52.880;6.016;2022-08-26T00:27:04;31.98;;;19.35;;
54883;SDS011;40776;52.880;6.016;2022-08-26T00:29:30;31.13;;;18.83;;
54883;SDS011;40776;52.880;6.016;2022-08-26T00:31:58;29.92;;;18.17;;
54883;SDS011;40776;52.880;6.016;2022-08-26T00:34:25;27.73;;;17.13;;
54883;SDS011;40776;52.880;6.016;2022-08-26T00:36:51;29.45;;;15.35;;
54883;SDS011;40776;52.880;6.016;2022-08-26T00:39:19;28.08;;;15.48;;
54883;SDS011;40776;52.880;6.016;2022-08-26T00:41:46;23.70;;;15.10;;
54883;SDS011;40776;52.880;6.016;2022-08-26T00:44:12;27.35;;;15.40;;
54883;SDS011;40776;52.880;6.016;2022-08-26T00:46:42;23.60;;;14.10;;
54883;SDS011;40776;52.880;6.016;2022-08-26T00:49:15;25.25;;;14.88;;
54883;SDS011;40776;52.880;6.016;2022-08-26T00:51:47;19.92;;;14.18;;
54883;SDS011;40776;52.880;6.016;2022-08-26T00:54:14;24.00;;;12.60;;
54883;SDS011;40776;52.880;6.016;2022-08-26T00:56:42;24.27;;;13.13;;
54883;SDS011;40776;52.880;6.016;2022-08-26T00:59:11;26.73;;;13.23;;
54883;SDS011;40776;52.880;6.016;2022-08-26T01:01:38;19.70;;;13.25;;
54883;SDS011;40776;52.880;6.016;2022-08-26T01:04:06;24.73;;;13.00;;
54883;SDS011;40776;52.880;6.016;2022-08-26T01:06:33;22.90;;;12.48;;
54883;SDS011;40776;52.880;6.016;2022-08-26T01:08:59;19.85;;;12.20;;
54883;SDS011;40776;52.880;6.016;2022-08-26T01:11:25;19.85;;;10.90;;
54883;SDS011;40776;52.880;6.016;2022-08-26T01:13:53;24.73;;;11.15;;
54883;SDS011;40776;52.880;6.016;2022-08-26T01:16:21;22.48;;;10.73;;
54883;SDS011;40776;52.880;6.016;2022-08-26T01:18:49;24.65;;;11.07;;
54883;SDS011;40776;52.880;6.016;2022-08-26T01:24:20;22.40;;;9.35;;
54883;SDS011;40776;52.880;6.016;2022-08-26T01:26:46;18.17;;;8.75;;
54883;SDS011;40776;52.880;6.016;2022-08-26T01:29:16;21.55;;;10.98;;
54883;SDS011;40776;52.880;6.016;2022-08-26T01:32:02;20.05;;;7.72;;
54883;SDS011;40776;52.880;6.016;2022-08-26T01:34:33;18.50;;;8.25;;
54883;SDS011;40776;52.880;6.016;2022-08-26T01:37:02;12.60;;;8.27;;
54883;SDS011;40776;52.880;6.016;2022-08-26T01:39:32;14.43;;;7.80;;
54883;SDS011;40776;52.880;6.016;2022-08-26T01:41:59;16.27;;;7.90;;
54883;SDS011;40776;52.880;6.016;2022-08-26T01:44:27;14.50;;;7.13;;
54883;SDS011;40776;52.880;6.016;2022-08-26T01:46:54;14.85;;;6.93;;
54883;SDS011;40776;52.880;6.016;2022-08-26T01:49:21;15.57;;;5.68;;
54883;SDS011;40776;52.880;6.016;2022-08-26T01:51:49;11.85;;;6.18;;
54883;SDS011;40776;52.880;6.016;2022-08-26T01:54:15;20.92;;;6.18;;
54883;SDS011;40776;52.880;6.016;2022-08-26T01:56:42;13.30;;;5.20;;
54883;SDS011;40776;52.880;6.016;2022-08-26T01:59:09;11.55;;;5.15;;
54883;SDS011;40776;52.880;6.016;2022-08-26T02:01:35;12.73;;;4.90;;
54883;SDS011;40776;52.880;6.016;2022-08-26T02:04:22;11.82;;;4.47;;
54883;SDS011;40776;52.880;6.016;2022-08-26T02:06:49;14.43;;;5.32;;
54883;SDS011;40776;52.880;6.016;2022-08-26T02:09:16;10.13;;;3.53;;
54883;SDS011;40776;52.880;6.016;2022-08-26T02:11:43;10.85;;;3.63;;
54883;SDS011;40776;52.880;6.016;2022-08-26T02:14:19;11.55;;;3.30;;
54883;SDS011;40776;52.880;6.016;2022-08-26T02:16:46;16.42;;;4.30;;
54883;SDS011;40776;52.880;6.016;2022-08-26T02:19:25;11.77;;;3.78;;
54883;SDS011;40776;52.880;6.016;2022-08-26T02:21:52;14.48;;;4.10;;
54883;SDS011;40776;52.880;6.016;2022-08-26T02:24:21;13.82;;;3.40;;
54883;SDS011;40776;52.880;6.016;2022-08-26T02:26:47;14.95;;;3.75;;
54883;SDS011;40776;52.880;6.016;2022-08-26T02:29:19;9.60;;;3.50;;
54883;SDS011;40776;52.880;6.016;2022-08-26T02:31:47;8.05;;;3.15;;
54883;SDS011;40776;52.880;6.016;2022-08-26T02:34:14;11.32;;;3.50;;
54883;SDS011;40776;52.880;6.016;2022-08-26T02:36:41;10.30;;;2.83;;
54883;SDS011;40776;52.880;6.016;2022-08-26T02:39:07;9.50;;;2.42;;
54883;SDS011;40776;52.880;6.016;2022-08-26T02:41:33;8.27;;;2.58;;
54883;SDS011;40776;52.880;6.016;2022-08-26T02:43:59;10.55;;;2.67;;
54883;SDS011;40776;52.880;6.016;2022-08-26T02:46:25;10.82;;;2.00;;
54883;SDS011;40776;52.880;6.016;2022-08-26T02:48:52;8.55;;;2.10;;
54883;SDS011;40776;52.880;6.016;2022-08-26T02:51:18;10.95;;;3.00;;
54883;SDS011;40776;52.880;6.016;2022-08-26T02:53:44;11.05;;;2.17;;
54883;SDS011;40776;52.880;6.016;2022-08-26T02:56:10;11.63;;;2.42;;
54883;SDS011;40776;52.880;6.016;2022-08-26T02:58:36;11.38;;;2.53;;
54883;SDS011;40776;52.880;6.016;2022-08-26T03:01:02;12.40;;;1.90;;
54883;SDS011;40776;52.880;6.016;2022-08-26T03:03:28;13.35;;;2.17;;
54883;SDS011;40776;52.880;6.016;2022-08-26T03:05:54;9.80;;;2.03;;
54883;SDS011;40776;52.880;6.016;2022-08-26T03:08:20;9.63;;;2.70;;
54883;SDS011;40776;52.880;6.016;2022-08-26T03:10:46;9.60;;;1.60;;
54883;SDS011;40776;52.880;6.016;2022-08-26T03:13:13;10.38;;;1.83;;
54883;SDS011;40776;52.880;6.016;2022-08-26T03:15:39;6.85;;;1.73;;
54883;SDS011;40776;52.880;6.016;2022-08-26T03:18:05;9.07;;;2.10;;
54883;SDS011;40776;52.880;6.016;2022-08-26T03:20:32;11.55;;;1.90;;
54883;SDS011;40776;52.880;6.016;2022-08-26T03:22:58;9.32;;;1.80;;
54883;SDS011;40776;52.880;6.016;2022-08-26T03:25:24;8.80;;;1.88;;
54883;SDS011;40776;52.880;6.016;2022-08-26T03:27:50;6.63;;;1.65;;
54883;SDS011;40776;52.880;6.016;2022-08-26T03:30:17;6.88;;;1.58;;
54883;SDS011;40776;52.880;6.016;2022-08-26T03:33:02;8.73;;;1.95;;
54883;SDS011;40776;52.880;6.016;2022-08-26T03:35:28;6.68;;;1.80;;
54883;SDS011;40776;52.880;6.016;2022-08-26T03:37:54;9.40;;;1.65;;
54883;SDS011;40776;52.880;6.016;2022-08-26T03:40:21;15.50;;;3.20;;
54883;SDS011;40776;52.880;6.016;2022-08-26T03:42:47;11.90;;;2.78;;
54883;SDS011;40776;52.880;6.016;2022-08-26T03:45:13;8.18;;;1.52;;
54883;SDS011;40776;52.880;6.016;2022-08-26T03:47:40;9.77;;;2.05;;
54883;SDS011;40776;52.880;6.016;2022-08-26T03:50:07;13.40;;;1.73;;
54883;SDS011;40776;52.880;6.016;2022-08-26T03:52:34;8.95;;;2.17;;
54883;SDS011;40776;52.880;6.016;2022-08-26T03:55:00;9.63;;;1.85;;
54883;SDS011;40776;52.880;6.016;2022-08-26T03:57:28;11.20;;;2.05;;
54883;SDS011;40776;52.880;6.016;2022-08-26T03:59:55;10.70;;;2.13;;
54883;SDS011;40776;52.880;6.016;2022-08-26T04:02:21;15.60;;;3.03;;
54883;SDS011;40776;52.880;6.016;2022-08-26T04:04:47;13.57;;;1.60;;
54883;SDS011;40776;52.880;6.016;2022-08-26T04:07:13;13.90;;;3.15;;
54883;SDS011;40776;52.880;6.016;2022-08-26T04:09:39;10.05;;;2.03;;
54883;SDS011;40776;52.880;6.016;2022-08-26T04:12:05;11.68;;;1.75;;
54883;SDS011;40776;52.880;6.016;2022-08-26T04:14:31;15.52;;;2.45;;
54883;SDS011;40776;52.880;6.016;2022-08-26T04:16:59;13.00;;;2.45;;
54883;SDS011;40776;52.880;6.016;2022-08-26T04:19:26;15.40;;;1.77;;
54883;SDS011;40776;52.880;6.016;2022-08-26T04:21:53;16.13;;;2.53;;
54883;SDS011;40776;52.880;6.016;2022-08-26T04:24:20;11.45;;;2.03;;
54883;SDS011;40776;52.880;6.016;2022-08-26T04:26:46;14.23;;;2.45;;
54883;SDS011;40776;52.880;6.016;2022-08-26T04:29:20;12.77;;;2.13;;
54883;SDS011;40776;52.880;6.016;2022-08-26T04:31:48;20.23;;;3.33;;
54883;SDS011;40776;52.880;6.016;2022-08-26T04:34:14;16.45;;;2.78;;
54883;SDS011;40776;52.880;6.016;2022-08-26T04:36:41;13.90;;;2.83;;
54883;SDS011;40776;52.880;6.016;2022-08-26T04:39:07;14.88;;;2.83;;
54883;SDS011;40776;52.880;6.016;2022-08-26T04:41:36;17.70;;;2.38;;
54883;SDS011;40776;52.880;6.016;2022-08-26T04:44:02;11.98;;;2.60;;
54883;SDS011;40776;52.880;6.016;2022-08-26T04:46:30;15.60;;;2.70;;
54883;SDS011;40776;52.880;6.016;2022-08-26T04:48:56;11.70;;;2.28;;
54883;SDS011;40776;52.880;6.016;2022-08-26T04:51:23;12.20;;;2.22;;
54883;SDS011;40776;52.880;6.016;2022-08-26T04:53:51;12.77;;;2.25;;
54883;SDS011;40776;52.880;6.016;2022-08-26T04:56:18;13.23;;;3.10;;
54883;SDS011;40776;52.880;6.016;2022-08-26T04:58:44;11.40;;;2.45;;
54883;SDS011;40776;52.880;6.016;2022-08-26T05:01:10;13.45;;;2.40;;
54883;SDS011;40776;52.880;6.016;2022-08-26T05:03:36;13.98;;;2.40;;
54883;SDS011;40776;52.880;6.016;2022-08-26T05:06:03;15.00;;;2.15;;
54883;SDS011;40776;52.880;6.016;2022-08-26T05:08:29;13.88;;;2.30;;
54883;SDS011;40776;52.880;6.016;2022-08-26T05:10:55;12.88;;;2.30;;
54883;SDS011;40776;52.880;6.016;2022-08-26T05:13:22;14.13;;;3.08;;
54883;SDS011;40776;52.880;6.016;2022-08-26T05:15:49;13.13;;;2.40;;
54883;SDS011;40776;52.880;6.016;2022-08-26T05:18:16;12.52;;;1.85;;
54883;SDS011;40776;52.880;6.016;2022-08-26T05:20:46;15.03;;;2.07;;
54883;SDS011;40776;52.880;6.016;2022-08-26T05:23:12;13.93;;;2.47;;
54883;SDS011;40776;52.880;6.016;2022-08-26T05:25:40;9.50;;;2.00;;
54883;SDS011;40776;52.880;6.016;2022-08-26T05:28:07;13.35;;;2.10;;
54883;SDS011;40776;52.880;6.016;2022-08-26T05:30:34;13.50;;;2.08;;
54883;SDS011;40776;52.880;6.016;2022-08-26T05:33:00;10.43;;;2.33;;
54883;SDS011;40776;52.880;6.016;2022-08-26T05:35:27;14.05;;;2.55;;
54883;SDS011;40776;52.880;6.016;2022-08-26T05:38:06;12.10;;;2.38;;
54883;SDS011;40776;52.880;6.016;2022-08-26T05:40:33;8.73;;;1.98;;
54883;SDS011;40776;52.880;6.016;2022-08-26T05:42:59;12.13;;;2.88;;
54883;SDS011;40776;52.880;6.016;2022-08-26T05:45:25;9.43;;;2.33;;
54883;SDS011;40776;52.880;6.016;2022-08-26T05:47:52;21.15;;;3.50;;
54883;SDS011;40776;52.880;6.016;2022-08-26T05:50:18;11.75;;;2.72;;
54883;SDS011;40776;52.880;6.016;2022-08-26T05:52:48;18.85;;;3.38;;
54883;SDS011;40776;52.880;6.016;2022-08-26T05:55:15;11.82;;;2.35;;
54883;SDS011;40776;52.880;6.016;2022-08-26T05:57:41;6.88;;;2.10;;
54883;SDS011;40776;52.880;6.016;2022-08-26T06:00:08;13.00;;;2.10;;
54883;SDS011;40776;52.880;6.016;2022-08-26T06:02:35;10.02;;;2.00;;
54883;SDS011;40776;52.880;6.016;2022-08-26T06:05:03;16.35;;;2.05;;
54883;SDS011;40776;52.880;6.016;2022-08-26T06:07:29;13.18;;;2.70;;
54883;SDS011;40776;52.880;6.016;2022-08-26T06:10:14;10.52;;;1.90;;
54883;SDS011;40776;52.880;6.016;2022-08-26T06:12:40;8.32;;;1.45;;
54883;SDS011;40776;52.880;6.016;2022-08-26T06:15:06;9.57;;;2.60;;
54883;SDS011;40776;52.880;6.016;2022-08-26T06:17:33;10.93;;;1.75;;
54883;SDS011;40776;52.880;6.016;2022-08-26T06:19:59;5.38;;;1.80;;
54883;SDS011;40776;52.880;6.016;2022-08-26T06:22:25;7.03;;;1.92;;
54883;SDS011;40776;52.880;6.016;2022-08-26T06:25:10;6.35;;;2.00;;
54883;SDS011;40776;52.880;6.016;2022-08-26T06:27:55;11.55;;;2.45;;
54883;SDS011;40776;52.880;6.016;2022-08-26T06:30:21;8.65;;;2.20;;
54883;SDS011;40776;52.880;6.016;2022-08-26T06:32:47;10.50;;;2.53;;
54883;SDS011;40776;52.880;6.016;2022-08-26T06:35:13;13.13;;;2.55;;
54883;SDS011;40776;52.880;6.016;2022-08-26T06:37:39;7.88;;;1.73;;
54883;SDS011;40776;52.880;6.016;2022-08-26T06:40:07;9.48;;;1.88;;
54883;SDS011;40776;52.880;6.016;2022-08-26T06:42:33;10.57;;;1.95;;
54883;SDS011;40776;52.880;6.016;2022-08-26T06:44:59;10.63;;;2.00;;
54883;SDS011;40776;52.880;6.016;2022-08-26T06:47:25;15.00;;;2.47;;
54883;SDS011;40776;52.880;6.016;2022-08-26T06:49:51;8.65;;;1.50;;
54883;SDS011;40776;52.880;6.016;2022-08-26T06:52:17;14.90;;;2.00;;
54883;SDS011;40776;52.880;6.016;2022-08-26T06:54:43;13.30;;;2.05;;
54883;SDS011;40776;52.880;6.016;2022-08-26T06:57:10;10.57;;;1.50;;
54883;SDS011;40776;52.880;6.016;2022-08-26T06:59:36;10.25;;;2.13;;
54883;SDS011;40776;52.880;6.016;2022-08-26T07:02:02;11.52;;;2.10;;
54883;SDS011;40776;52.880;6.016;2022-08-26T07:04:29;14.00;;;2.17;;
54883;SDS011;40776;52.880;6.016;2022-08-26T07:06:55;8.50;;;1.40;;
54883;SDS011;40776;52.880;6.016;2022-08-26T07:09:22;10.00;;;1.88;;
54883;SDS011;40776;52.880;6.016;2022-08-26T07:11:49;9.55;;;1.52;;
54883;SDS011;40776;52.880;6.016;2022-08-26T07:14:15;11.18;;;2.00;;
54883;SDS011;40776;52.880;6.016;2022-08-26T07:16:43;10.50;;;1.80;;
54883;SDS011;40776;52.880;6.016;2022-08-26T07:19:09;12.23;;;2.72;;
54883;SDS011;40776;52.880;6.016;2022-08-26T07:21:35;9.02;;;1.30;;
54883;SDS011;40776;52.880;6.016;2022-08-26T07:24:02;13.32;;;1.95;;
54883;SDS011;40776;52.880;6.016;2022-08-26T07:26:29;10.90;;;1.55;;
54883;SDS011;40776;52.880;6.016;2022-08-26T07:28:56;7.88;;;2.33;;
54883;SDS011;40776;52.880;6.016;2022-08-26T07:31:23;11.10;;;1.55;;
54883;SDS011;40776;52.880;6.016;2022-08-26T07:33:49;8.63;;;1.63;;
54883;SDS011;40776;52.880;6.016;2022-08-26T07:36:16;11.07;;;1.83;;
54883;SDS011;40776;52.880;6.016;2022-08-26T07:38:43;13.13;;;1.60;;
54883;SDS011;40776;52.880;6.016;2022-08-26T07:41:12;10.57;;;1.60;;
54883;SDS011;40776;52.880;6.016;2022-08-26T07:43:39;10.73;;;1.60;;
54883;SDS011;40776;52.880;6.016;2022-08-26T07:46:05;12.57;;;1.60;;
54883;SDS011;40776;52.880;6.016;2022-08-26T07:48:31;8.93;;;2.20;;
54883;SDS011;40776;52.880;6.016;2022-08-26T07:50:58;14.88;;;2.72;;
54883;SDS011;40776;52.880;6.016;2022-08-26T07:53:24;9.77;;;2.17;;
54883;SDS011;40776;52.880;6.016;2022-08-26T07:55:50;7.55;;;1.55;;
54883;SDS011;40776;52.880;6.016;2022-08-26T07:58:16;9.43;;;1.67;;
54883;SDS011;40776;52.880;6.016;2022-08-26T08:00:45;6.75;;;1.60;;
54883;SDS011;40776;52.880;6.016;2022-08-26T08:03:11;13.25;;;2.63;;
54883;SDS011;40776;52.880;6.016;2022-08-26T08:05:39;13.77;;;4.20;;
54883;SDS011;40776;52.880;6.016;2022-08-26T08:08:05;9.50;;;1.77;;
54883;SDS011;40776;52.880;6.016;2022-08-26T08:10:32;7.35;;;1.95;;
54883;SDS011;40776;52.880;6.016;2022-08-26T08:13:00;4.45;;;1.15;;
54883;SDS011;40776;52.880;6.016;2022-08-26T08:15:26;9.35;;;1.27;;
54883;SDS011;40776;52.880;6.016;2022-08-26T08:17:54;8.02;;;1.38;;
54883;SDS011;40776;52.880;6.016;2022-08-26T08:20:21;8.05;;;2.08;;
54883;SDS011;40776;52.880;6.016;2022-08-26T08:22:48;10.93;;;1.92;;
54883;SDS011;40776;52.880;6.016;2022-08-26T08:25:15;11.35;;;2.75;;
54883;SDS011;40776;52.880;6.016;2022-08-26T08:27:41;11.57;;;2.20;;
54883;SDS011;40776;52.880;6.016;2022-08-26T08:30:09;8.02;;;1.60;;
54883;SDS011;40776;52.880;6.016;2022-08-26T08:32:35;10.10;;;1.50;;
54883;SDS011;40776;52.880;6.016;2022-08-26T08:35:07;13.55;;;1.73;;
54883;SDS011;40776;52.880;6.016;2022-08-26T08:37:36;13.38;;;1.65;;
54883;SDS011;40776;52.880;6.016;2022-08-26T08:40:03;8.80;;;1.55;;
54883;SDS011;40776;52.880;6.016;2022-08-26T08:42:46;6.88;;;1.13;;
54883;SDS011;40776;52.880;6.016;2022-08-26T08:45:16;7.55;;;1.17;;
54883;SDS011;40776;52.880;6.016;2022-08-26T08:47:49;13.05;;;1.60;;
54883;SDS011;40776;52.880;6.016;2022-08-26T08:50:19;8.57;;;1.83;;
54883;SDS011;40776;52.880;6.016;2022-08-26T08:52:48;18.02;;;3.03;;
54883;SDS011;40776;52.880;6.016;2022-08-26T08:55:16;10.23;;;1.38;;
54883;SDS011;40776;52.880;6.016;2022-08-26T08:57:55;7.53;;;1.60;;
54883;SDS011;40776;52.880;6.016;2022-08-26T09:00:24;11.68;;;1.40;;
54883;SDS011;40776;52.880;6.016;2022-08-26T09:02:56;12.38;;;1.70;;
54883;SDS011;40776;52.880;6.016;2022-08-26T09:05:30;6.00;;;1.00;;
54883;SDS011;40776;52.880;6.016;2022-08-26T09:08:00;10.57;;;1.70;;
54883;SDS011;40776;52.880;6.016;2022-08-26T09:10:35;7.75;;;1.27;;
54883;SDS011;40776;52.880;6.016;2022-08-26T09:13:05;10.10;;;1.60;;
54883;SDS011;40776;52.880;6.016;2022-08-26T09:18:33;6.32;;;1.10;;
54883;SDS011;40776;52.880;6.016;2022-08-26T09:21:03;5.57;;;1.10;;
54883;SDS011;40776;52.880;6.016;2022-08-26T09:23:30;7.05;;;1.10;;
54883;SDS011;40776;52.880;6.016;2022-08-26T09:25:57;5.72;;;1.05;;
54883;SDS011;40776;52.880;6.016;2022-08-26T09:28:25;7.60;;;1.00;;
54883;SDS011;40776;52.880;6.016;2022-08-26T09:31:09;4.53;;;1.10;;
54883;SDS011;40776;52.880;6.016;2022-08-26T09:33:35;7.13;;;1.10;;
54883;SDS011;40776;52.880;6.016;2022-08-26T09:36:11;6.03;;;1.00;;
54883;SDS011;40776;52.880;6.016;2022-08-26T09:38:38;5.93;;;0.93;;
54883;SDS011;40776;52.880;6.016;2022-08-26T09:41:06;9.85;;;1.02;;
54883;SDS011;40776;52.880;6.016;2022-08-26T09:43:32;8.95;;;1.23;;
54883;SDS011;40776;52.880;6.016;2022-08-26T09:46:18;5.85;;;0.90;;
54883;SDS011;40776;52.880;6.016;2022-08-26T09:48:46;5.55;;;0.90;;
54883;SDS011;40776;52.880;6.016;2022-08-26T09:58:49;8.98;;;1.40;;
54883;SDS011;40776;52.880;6.016;2022-08-26T10:03:48;10.93;;;1.90;;
54883;SDS011;40776;52.880;6.016;2022-08-26T10:08:42;12.02;;;1.92;;
54883;SDS011;40776;52.880;6.016;2022-08-26T10:11:21;9.70;;;1.13;;
54883;SDS011;40776;52.880;6.016;2022-08-26T10:19:13;8.52;;;1.42;;
54883;SDS011;40776;52.880;6.016;2022-08-26T10:21:44;12.30;;;1.85;;
54883;SDS011;40776;52.880;6.016;2022-08-26T10:24:14;6.60;;;1.33;;
54883;SDS011;40776;52.880;6.016;2022-08-26T10:27:04;10.40;;;1.13;;
54883;SDS011;40776;52.880;6.016;2022-08-26T10:29:50;7.00;;;1.98;;
54883;SDS011;40776;52.880;6.016;2022-08-26T10:32:26;13.77;;;1.23;;
54883;SDS011;40776;52.880;6.016;2022-08-26T10:34:55;11.27;;;1.33;;
54883;SDS011;40776;52.880;6.016;2022-08-26T10:37:22;7.28;;;1.20;;
54883;SDS011;40776;52.880;6.016;2022-08-26T10:42:42;6.07;;;1.13;;
54883;SDS011;40776;52.880;6.016;2022-08-26T10:45:16;5.38;;;1.05;;
54883;SDS011;40776;52.880;6.016;2022-08-26T10:47:51;11.20;;;1.40;;
54883;SDS011;40776;52.880;6.016;2022-08-26T10:50:19;10.00;;;1.50;;
54883;SDS011;40776;52.880;6.016;2022-08-26T10:52:54;7.10;;;1.00;;
54883;SDS011;40776;52.880;6.016;2022-08-26T10:55:30;6.50;;;1.05;;
54883;SDS011;40776;52.880;6.016;2022-08-26T10:58:00;7.35;;;1.05;;
54883;SDS011;40776;52.880;6.016;2022-08-26T11:00:34;8.68;;;1.42;;
54883;SDS011;40776;52.880;6.016;2022-08-26T11:03:35;5.38;;;0.98;;
54883;SDS011;40776;52.880;6.016;2022-08-26T11:08:46;6.40;;;1.10;;
54883;SDS011;40776;52.880;6.016;2022-08-26T11:11:35;4.78;;;1.08;;
54883;SDS011;40776;52.880;6.016;2022-08-26T11:16:48;7.90;;;1.13;;
54883;SDS011;40776;52.880;6.016;2022-08-26T11:22:08;6.22;;;1.10;;
54883;SDS011;40776;52.880;6.016;2022-08-26T11:24:39;7.60;;;1.33;;
54883;SDS011;40776;52.880;6.016;2022-08-26T11:27:06;6.35;;;1.30;;
54883;SDS011;40776;52.880;6.016;2022-08-26T11:32:24;8.02;;;1.30;;
54883;SDS011;40776;52.880;6.016;2022-08-26T11:34:57;7.53;;;2.05;;
54883;SDS011;40776;52.880;6.016;2022-08-26T11:37:26;11.23;;;2.03;;
54883;SDS011;40776;52.880;6.016;2022-08-26T11:39:53;6.80;;;1.27;;
54883;SDS011;40776;52.880;6.016;2022-08-26T11:44:52;6.07;;;0.93;;
54883;SDS011;40776;52.880;6.016;2022-08-26T11:47:26;9.23;;;1.58;;
54883;SDS011;40776;52.880;6.016;2022-08-26T11:50:09;10.70;;;1.95;;
54883;SDS011;40776;52.880;6.016;2022-08-26T11:52:35;11.98;;;1.73;;
54883;SDS011;40776;52.880;6.016;2022-08-26T11:55:06;10.68;;;2.08;;
54883;SDS011;40776;52.880;6.016;2022-08-26T11:57:34;10.30;;;1.73;;
54883;SDS011;40776;52.880;6.016;2022-08-26T12:00:00;3.85;;;0.98;;
54883;SDS011;40776;52.880;6.016;2022-08-26T12:02:27;5.43;;;1.40;;
54883;SDS011;40776;52.880;6.016;2022-08-26T12:04:53;12.48;;;1.55;;
54883;SDS011;40776;52.880;6.016;2022-08-26T12:07:21;8.43;;;1.27;;
54883;SDS011;40776;52.880;6.016;2022-08-26T12:09:50;5.68;;;1.20;;
54883;SDS011;40776;52.880;6.016;2022-08-26T12:12:20;8.65;;;1.50;;
54883;SDS011;40776;52.880;6.016;2022-08-26T12:17:14;8.15;;;1.77;;
54883;SDS011;40776;52.880;6.016;2022-08-26T12:19:40;7.50;;;1.50;;
54883;SDS011;40776;52.880;6.016;2022-08-26T12:22:41;8.07;;;1.55;;
54883;SDS011;40776;52.880;6.016;2022-08-26T12:25:01;8.23;;;1.90;;
54883;SDS011;40776;52.880;6.016;2022-08-26T12:27:33;6.55;;;1.58;;
54883;SDS011;40776;52.880;6.016;2022-08-26T12:32:28;6.22;;;1.63;;
54883;SDS011;40776;52.880;6.016;2022-08-26T12:34:58;9.38;;;1.50;;
54883;SDS011;40776;52.880;6.016;2022-08-26T12:37:26;5.47;;;1.60;;
54883;SDS011;40776;52.880;6.016;2022-08-26T12:39:53;9.02;;;1.50;;
54883;SDS011;40776;52.880;6.016;2022-08-26T12:49:40;6.53;;;1.38;;
54883;SDS011;40776;52.880;6.016;2022-08-26T12:52:18;10.25;;;1.30;;
54883;SDS011;40776;52.880;6.016;2022-08-26T12:54:53;8.60;;;1.60;;
54883;SDS011;40776;52.880;6.016;2022-08-26T12:57:24;8.18;;;1.35;;
54883;SDS011;40776;52.880;6.016;2022-08-26T12:59:51;11.35;;;1.38;;
54883;SDS011;40776;52.880;6.016;2022-08-26T13:02:36;9.30;;;1.83;;
54883;SDS011;40776;52.880;6.016;2022-08-26T13:05:03;15.68;;;1.90;;
54883;SDS011;40776;52.880;6.016;2022-08-26T13:07:29;6.57;;;1.65;;
54883;SDS011;40776;52.880;6.016;2022-08-26T13:09:57;5.30;;;1.40;;
54883;SDS011;40776;52.880;6.016;2022-08-26T13:12:28;7.03;;;1.50;;
54883;SDS011;40776;52.880;6.016;2022-08-26T13:14:55;7.32;;;2.35;;
54883;SDS011;40776;52.880;6.016;2022-08-26T13:17:22;7.07;;;1.55;;
54883;SDS011;40776;52.880;6.016;2022-08-26T13:19:48;9.75;;;2.00;;
54883;SDS011;40776;52.880;6.016;2022-08-26T13:22:14;8.05;;;1.50;;
54883;SDS011;40776;52.880;6.016;2022-08-26T13:24:44;7.47;;;2.17;;
54883;SDS011;40776;52.880;6.016;2022-08-26T13:27:11;7.40;;;1.60;;
54883;SDS011;40776;52.880;6.016;2022-08-26T13:29:38;7.43;;;1.42;;
54883;SDS011;40776;52.880;6.016;2022-08-26T13:32:05;9.95;;;1.60;;
54883;SDS011;40776;52.880;6.016;2022-08-26T13:34:32;10.40;;;1.50;;
54883;SDS011;40776;52.880;6.016;2022-08-26T13:36:58;4.55;;;2.15;;
54883;SDS011;40776;52.880;6.016;2022-08-26T13:39:25;7.32;;;1.40;;
54883;SDS011;40776;52.880;6.016;2022-08-26T13:41:51;7.95;;;2.17;;
54883;SDS011;40776;52.880;6.016;2022-08-26T13:44:17;9.65;;;1.38;;
54883;SDS011;40776;52.880;6.016;2022-08-26T13:46:44;5.78;;;1.30;;
54883;SDS011;40776;52.880;6.016;2022-08-26T13:49:10;6.03;;;1.23;;
54883;SDS011;40776;52.880;6.016;2022-08-26T13:51:36;8.07;;;1.50;;
54883;SDS011;40776;52.880;6.016;2022-08-26T13:54:02;7.22;;;1.67;;
54883;SDS011;40776;52.880;6.016;2022-08-26T13:56:29;7.65;;;1.73;;
54883;SDS011;40776;52.880;6.016;2022-08-26T13:58:56;8.77;;;2.38;;
54883;SDS011;40776;52.880;6.016;2022-08-26T14:01:23;6.00;;;1.58;;
54883;SDS011;40776;52.880;6.016;2022-08-26T14:03:50;4.93;;;1.42;;
54883;SDS011;40776;52.880;6.016;2022-08-26T14:06:16;6.50;;;1.30;;
54883;SDS011;40776;52.880;6.016;2022-08-26T14:08:42;8.35;;;1.30;;
54883;SDS011;40776;52.880;6.016;2022-08-26T14:11:09;7.43;;;1.08;;
54883;SDS011;40776;52.880;6.016;2022-08-26T14:13:35;4.13;;;1.13;;
54883;SDS011;40776;52.880;6.016;2022-08-26T14:16:02;4.20;;;0.93;;
54883;SDS011;40776;52.880;6.016;2022-08-26T14:18:33;7.63;;;1.55;;
54883;SDS011;40776;52.880;6.016;2022-08-26T14:20:59;6.47;;;1.33;;
54883;SDS011;40776;52.880;6.016;2022-08-26T14:23:25;2.90;;;0.90;;
54883;SDS011;40776;52.880;6.016;2022-08-26T14:25:51;5.80;;;1.50;;
54883;SDS011;40776;52.880;6.016;2022-08-26T14:28:18;10.23;;;1.10;;
54883;SDS011;40776;52.880;6.016;2022-08-26T14:30:46;5.50;;;0.90;;
54883;SDS011;40776;52.880;6.016;2022-08-26T14:33:13;6.53;;;1.38;;
54883;SDS011;40776;52.880;6.016;2022-08-26T14:35:40;9.10;;;1.75;;
54883;SDS011;40776;52.880;6.016;2022-08-26T14:38:06;4.53;;;1.30;;
54883;SDS011;40776;52.880;6.016;2022-08-26T14:40:32;7.90;;;1.30;;
54883;SDS011;40776;52.880;6.016;2022-08-26T14:42:59;6.53;;;1.00;;
54883;SDS011;40776;52.880;6.016;2022-08-26T14:45:26;7.88;;;1.52;;
54883;SDS011;40776;52.880;6.016;2022-08-26T14:47:52;5.93;;;1.20;;
54883;SDS011;40776;52.880;6.016;2022-08-26T14:50:21;6.78;;;1.27;;
54883;SDS011;40776;52.880;6.016;2022-08-26T14:52:48;5.95;;;1.05;;
54883;SDS011;40776;52.880;6.016;2022-08-26T14:55:33;3.13;;;1.15;;
54883;SDS011;40776;52.880;6.016;2022-08-26T14:58:00;7.10;;;1.75;;
54883;SDS011;40776;52.880;6.016;2022-08-26T15:00:26;5.85;;;1.52;;
54883;SDS011;40776;52.880;6.016;2022-08-26T15:02:53;9.32;;;1.60;;
54883;SDS011;40776;52.880;6.016;2022-08-26T15:05:19;6.55;;;1.30;;
54883;SDS011;40776;52.880;6.016;2022-08-26T15:07:45;3.50;;;1.35;;
54883;SDS011;40776;52.880;6.016;2022-08-26T15:10:12;11.13;;;1.70;;
54883;SDS011;40776;52.880;6.016;2022-08-26T15:12:38;7.63;;;1.35;;
54883;SDS011;40776;52.880;6.016;2022-08-26T15:15:05;5.07;;;0.98;;
54883;SDS011;40776;52.880;6.016;2022-08-26T15:17:31;8.50;;;1.25;;
54883;SDS011;40776;52.880;6.016;2022-08-26T15:19:57;8.15;;;1.10;;
54883;SDS011;40776;52.880;6.016;2022-08-26T15:22:24;7.90;;;1.33;;
54883;SDS011;40776;52.880;6.016;2022-08-26T15:24:50;7.22;;;1.05;;
54883;SDS011;40776;52.880;6.016;2022-08-26T15:27:17;5.32;;;1.52;;
54883;SDS011;40776;52.880;6.016;2022-08-26T15:29:43;4.50;;;1.45;;
54883;SDS011;40776;52.880;6.016;2022-08-26T15:32:09;6.47;;;1.08;;
54883;SDS011;40776;52.880;6.016;2022-08-26T15:34:38;5.28;;;1.42;;
54883;SDS011;40776;52.880;6.016;2022-08-26T15:37:04;7.05;;;1.13;;
54883;SDS011;40776;52.880;6.016;2022-08-26T15:39:30;10.68;;;1.88;;